sensor_id;sensor_type;location;lat;lon;timestamp;P1;durP1;ratioP1;P2;durP2;ratioP2
24859;SDS011;12936;52.006;4.350;2023-06-26T00:00:06;5.60;;;4.40;;
24859;SDS011;12936;52.006;4.350;2023-06-26T00:02:36;6.82;;;4.53;;
24859;SDS011;12936;52.006;4.350;2023-06-26T00:05:05;7.28;;;4.75;;
24859;SDS011;12936;52.006;4.350;2023-06-26T00:07:34;7.15;;;4.55;;
24859;SDS011;12936;52.006;4.350;2023-06-26T00:10:02;7.70;;;4.78;;
24859;SDS011;12936;52.006;4.350;2023-06-26T00:12:31;6.97;;;4.50;;
24859;SDS011;12936;52.006;4.350;2023-06-26T00:15:00;8.80;;;4.43;;
24859;SDS011;12936;52.006;4.350;2023-06-26T00:17:28;6.55;;;3.97;;
24859;SDS011;12936;52.006;4.350;2023-06-26T00:19:57;8.18;;;4.13;;
24859;SDS011;12936;52.006;4.350;2023-06-26T00:22:25;13.35;;;4.60;;
24859;SDS011;12936;52.006;4.350;2023-06-26T00:24:54;10.00;;;4.88;;
24859;SDS011;12936;52.006;4.350;2023-06-26T00:27:22;7.40;;;4.05;;
24859;SDS011;12936;52.006;4.350;2023-06-26T00:29:50;8.52;;;4.15;;
24859;SDS011;12936;52.006;4.350;2023-06-26T00:32:19;9.25;;;4.20;;
24859;SDS011;12936;52.006;4.350;2023-06-26T00:34:47;10.98;;;4.15;;
24859;SDS011;12936;52.006;4.350;2023-06-26T00:37:16;10.45;;;4.15;;
24859;SDS011;12936;52.006;4.350;2023-06-26T00:39:44;10.73;;;3.85;;
24859;SDS011;12936;52.006;4.350;2023-06-26T00:42:13;10.63;;;3.80;;
24859;SDS011;12936;52.006;4.350;2023-06-26T00:44:41;12.85;;;4.00;;
24859;SDS011;12936;52.006;4.350;2023-06-26T00:47:09;10.90;;;3.85;;
24859;SDS011;12936;52.006;4.350;2023-06-26T00:49:42;11.10;;;3.90;;
24859;SDS011;12936;52.006;4.350;2023-06-26T00:52:10;10.40;;;4.05;;
24859;SDS011;12936;52.006;4.350;2023-06-26T00:54:40;11.65;;;4.10;;
24859;SDS011;12936;52.006;4.350;2023-06-26T00:57:08;11.32;;;4.25;;
24859;SDS011;12936;52.006;4.350;2023-06-26T00:59:36;14.85;;;4.35;;
24859;SDS011;12936;52.006;4.350;2023-06-26T01:02:04;15.50;;;4.13;;
24859;SDS011;12936;52.006;4.350;2023-06-26T01:04:34;14.70;;;4.18;;
24859;SDS011;12936;52.006;4.350;2023-06-26T01:07:02;17.83;;;4.40;;
24859;SDS011;12936;52.006;4.350;2023-06-26T01:09:33;13.95;;;3.80;;
24859;SDS011;12936;52.006;4.350;2023-06-26T01:12:05;11.48;;;4.15;;
24859;SDS011;12936;52.006;4.350;2023-06-26T01:14:34;13.07;;;4.88;;
24859;SDS011;12936;52.006;4.350;2023-06-26T01:17:03;14.27;;;4.38;;
24859;SDS011;12936;52.006;4.350;2023-06-26T01:19:32;13.85;;;4.68;;
24859;SDS011;12936;52.006;4.350;2023-06-26T01:22:02;13.20;;;4.47;;
24859;SDS011;12936;52.006;4.350;2023-06-26T01:24:42;13.38;;;4.60;;
24859;SDS011;12936;52.006;4.350;2023-06-26T01:27:22;14.60;;;4.72;;
24859;SDS011;12936;52.006;4.350;2023-06-26T01:29:53;18.35;;;4.68;;
24859;SDS011;12936;52.006;4.350;2023-06-26T01:32:24;19.75;;;5.30;;
24859;SDS011;12936;52.006;4.350;2023-06-26T01:34:52;14.48;;;4.15;;
24859;SDS011;12936;52.006;4.350;2023-06-26T01:37:20;14.07;;;4.13;;
24859;SDS011;12936;52.006;4.350;2023-06-26T01:39:48;11.93;;;4.65;;
24859;SDS011;12936;52.006;4.350;2023-06-26T01:42:16;11.70;;;4.28;;
24859;SDS011;12936;52.006;4.350;2023-06-26T01:44:46;13.82;;;4.60;;
24859;SDS011;12936;52.006;4.350;2023-06-26T01:47:16;19.58;;;4.97;;
24859;SDS011;12936;52.006;4.350;2023-06-26T01:49:49;10.88;;;4.57;;
24859;SDS011;12936;52.006;4.350;2023-06-26T01:52:23;12.07;;;4.50;;
24859;SDS011;12936;52.006;4.350;2023-06-26T01:54:56;14.45;;;4.78;;
24859;SDS011;12936;52.006;4.350;2023-06-26T01:57:30;12.70;;;4.28;;
24859;SDS011;12936;52.006;4.350;2023-06-26T02:00:00;13.98;;;4.38;;
24859;SDS011;12936;52.006;4.350;2023-06-26T02:02:36;17.17;;;4.40;;
24859;SDS011;12936;52.006;4.350;2023-06-26T02:05:04;11.75;;;4.00;;
24859;SDS011;12936;52.006;4.350;2023-06-26T02:07:33;12.25;;;4.35;;
24859;SDS011;12936;52.006;4.350;2023-06-26T02:10:01;11.27;;;4.30;;
24859;SDS011;12936;52.006;4.350;2023-06-26T02:12:33;15.85;;;4.30;;
24859;SDS011;12936;52.006;4.350;2023-06-26T02:15:03;12.55;;;4.65;;
24859;SDS011;12936;52.006;4.350;2023-06-26T02:17:32;15.82;;;4.60;;
24859;SDS011;12936;52.006;4.350;2023-06-26T02:20:00;11.25;;;4.20;;
24859;SDS011;12936;52.006;4.350;2023-06-26T02:22:29;17.27;;;4.70;;
24859;SDS011;12936;52.006;4.350;2023-06-26T02:24:57;18.58;;;4.82;;
24859;SDS011;12936;52.006;4.350;2023-06-26T02:27:25;14.73;;;4.50;;
24859;SDS011;12936;52.006;4.350;2023-06-26T02:29:54;17.00;;;4.75;;
24859;SDS011;12936;52.006;4.350;2023-06-26T02:32:23;14.68;;;4.95;;
24859;SDS011;12936;52.006;4.350;2023-06-26T02:34:51;15.52;;;4.90;;
24859;SDS011;12936;52.006;4.350;2023-06-26T02:37:20;16.38;;;4.75;;
24859;SDS011;12936;52.006;4.350;2023-06-26T02:39:48;15.18;;;4.93;;
24859;SDS011;12936;52.006;4.350;2023-06-26T02:42:16;21.98;;;5.57;;
24859;SDS011;12936;52.006;4.350;2023-06-26T02:44:44;14.38;;;4.93;;
24859;SDS011;12936;52.006;4.350;2023-06-26T02:47:12;23.65;;;5.30;;
24859;SDS011;12936;52.006;4.350;2023-06-26T02:49:42;13.23;;;4.53;;
24859;SDS011;12936;52.006;4.350;2023-06-26T02:52:13;16.05;;;5.10;;
24859;SDS011;12936;52.006;4.350;2023-06-26T02:54:41;21.77;;;5.05;;
24859;SDS011;12936;52.006;4.350;2023-06-26T02:57:09;21.15;;;6.15;;
24859;SDS011;12936;52.006;4.350;2023-06-26T02:59:40;19.02;;;5.45;;
24859;SDS011;12936;52.006;4.350;2023-06-26T03:02:09;16.60;;;4.47;;
24859;SDS011;12936;52.006;4.350;2023-06-26T03:04:37;17.40;;;4.82;;
24859;SDS011;12936;52.006;4.350;2023-06-26T03:07:06;13.77;;;5.00;;
24859;SDS011;12936;52.006;4.350;2023-06-26T03:09:34;14.27;;;4.72;;
24859;SDS011;12936;52.006;4.350;2023-06-26T03:12:03;14.85;;;4.95;;
24859;SDS011;12936;52.006;4.350;2023-06-26T03:14:31;17.20;;;5.40;;
24859;SDS011;12936;52.006;4.350;2023-06-26T03:17:00;14.98;;;4.65;;
24859;SDS011;12936;52.006;4.350;2023-06-26T03:19:30;18.77;;;4.63;;
24859;SDS011;12936;52.006;4.350;2023-06-26T03:21:58;15.38;;;4.68;;
24859;SDS011;12936;52.006;4.350;2023-06-26T03:24:28;13.52;;;4.68;;
24859;SDS011;12936;52.006;4.350;2023-06-26T03:26:56;16.67;;;5.00;;
24859;SDS011;12936;52.006;4.350;2023-06-26T03:29:24;16.40;;;4.68;;
24859;SDS011;12936;52.006;4.350;2023-06-26T03:31:52;19.40;;;5.45;;
24859;SDS011;12936;52.006;4.350;2023-06-26T03:34:20;12.02;;;4.95;;
24859;SDS011;12936;52.006;4.350;2023-06-26T03:36:48;15.45;;;4.22;;
24859;SDS011;12936;52.006;4.350;2023-06-26T03:39:16;14.93;;;4.50;;
24859;SDS011;12936;52.006;4.350;2023-06-26T03:41:46;16.02;;;4.15;;
24859;SDS011;12936;52.006;4.350;2023-06-26T03:44:14;17.23;;;5.00;;
24859;SDS011;12936;52.006;4.350;2023-06-26T03:46:43;13.98;;;4.40;;
24859;SDS011;12936;52.006;4.350;2023-06-26T03:49:11;18.15;;;4.78;;
24859;SDS011;12936;52.006;4.350;2023-06-26T03:51:39;13.10;;;4.10;;
24859;SDS011;12936;52.006;4.350;2023-06-26T03:54:07;13.38;;;4.25;;
24859;SDS011;12936;52.006;4.350;2023-06-26T03:56:35;9.35;;;3.80;;
24859;SDS011;12936;52.006;4.350;2023-06-26T03:59:06;16.17;;;4.28;;
24859;SDS011;12936;52.006;4.350;2023-06-26T04:01:35;13.73;;;4.15;;
24859;SDS011;12936;52.006;4.350;2023-06-26T04:04:04;13.50;;;4.22;;
24859;SDS011;12936;52.006;4.350;2023-06-26T04:06:32;12.45;;;3.85;;
24859;SDS011;12936;52.006;4.350;2023-06-26T04:09:00;16.35;;;3.83;;
24859;SDS011;12936;52.006;4.350;2023-06-26T04:11:30;12.65;;;4.00;;
24859;SDS011;12936;52.006;4.350;2023-06-26T04:13:59;11.93;;;3.92;;
24859;SDS011;12936;52.006;4.350;2023-06-26T04:16:28;6.97;;;3.38;;
24859;SDS011;12936;52.006;4.350;2023-06-26T04:18:59;9.43;;;3.60;;
24859;SDS011;12936;52.006;4.350;2023-06-26T04:21:28;9.35;;;3.85;;
24859;SDS011;12936;52.006;4.350;2023-06-26T04:23:56;11.02;;;3.50;;
24859;SDS011;12936;52.006;4.350;2023-06-26T04:26:25;10.25;;;3.53;;
24859;SDS011;12936;52.006;4.350;2023-06-26T04:28:54;15.10;;;3.72;;
24859;SDS011;12936;52.006;4.350;2023-06-26T04:31:22;10.05;;;3.53;;
24859;SDS011;12936;52.006;4.350;2023-06-26T04:33:52;12.73;;;4.03;;
24859;SDS011;12936;52.006;4.350;2023-06-26T04:36:21;8.07;;;3.50;;
24859;SDS011;12936;52.006;4.350;2023-06-26T04:38:49;10.27;;;3.80;;
24859;SDS011;12936;52.006;4.350;2023-06-26T04:41:17;6.75;;;3.47;;
24859;SDS011;12936;52.006;4.350;2023-06-26T04:43:45;13.00;;;3.78;;
24859;SDS011;12936;52.006;4.350;2023-06-26T04:46:13;12.95;;;3.53;;
24859;SDS011;12936;52.006;4.350;2023-06-26T04:48:41;11.50;;;3.97;;
24859;SDS011;12936;52.006;4.350;2023-06-26T04:51:12;10.05;;;3.25;;
24859;SDS011;12936;52.006;4.350;2023-06-26T04:53:40;9.82;;;3.40;;
24859;SDS011;12936;52.006;4.350;2023-06-26T04:56:08;10.18;;;3.75;;
24859;SDS011;12936;52.006;4.350;2023-06-26T04:58:37;9.18;;;3.53;;
24859;SDS011;12936;52.006;4.350;2023-06-26T05:01:05;8.80;;;3.30;;
24859;SDS011;12936;52.006;4.350;2023-06-26T05:03:34;8.77;;;3.08;;
24859;SDS011;12936;52.006;4.350;2023-06-26T05:06:03;6.72;;;3.15;;
24859;SDS011;12936;52.006;4.350;2023-06-26T05:08:36;6.38;;;2.80;;
24859;SDS011;12936;52.006;4.350;2023-06-26T05:11:04;6.45;;;2.63;;
24859;SDS011;12936;52.006;4.350;2023-06-26T05:13:32;7.53;;;2.67;;
24859;SDS011;12936;52.006;4.350;2023-06-26T05:16:00;8.30;;;2.83;;
24859;SDS011;12936;52.006;4.350;2023-06-26T05:18:29;7.25;;;1.98;;
24859;SDS011;12936;52.006;4.350;2023-06-26T05:20:57;9.50;;;2.30;;
24859;SDS011;12936;52.006;4.350;2023-06-26T05:23:25;10.52;;;2.00;;
24859;SDS011;12936;52.006;4.350;2023-06-26T05:25:55;8.25;;;2.38;;
24859;SDS011;12936;52.006;4.350;2023-06-26T05:28:24;9.30;;;2.00;;
24859;SDS011;12936;52.006;4.350;2023-06-26T05:30:54;9.25;;;1.77;;
24859;SDS011;12936;52.006;4.350;2023-06-26T05:33:23;7.82;;;1.40;;
24859;SDS011;12936;52.006;4.350;2023-06-26T05:35:52;6.53;;;1.40;;
24859;SDS011;12936;52.006;4.350;2023-06-26T05:38:21;8.27;;;1.55;;
24859;SDS011;12936;52.006;4.350;2023-06-26T05:40:50;7.05;;;1.90;;
24859;SDS011;12936;52.006;4.350;2023-06-26T05:43:21;7.50;;;1.30;;
24859;SDS011;12936;52.006;4.350;2023-06-26T05:45:54;5.95;;;1.52;;
24859;SDS011;12936;52.006;4.350;2023-06-26T05:48:22;5.85;;;1.52;;
24859;SDS011;12936;52.006;4.350;2023-06-26T05:50:50;8.85;;;1.52;;
24859;SDS011;12936;52.006;4.350;2023-06-26T05:53:19;5.03;;;1.30;;
24859;SDS011;12936;52.006;4.350;2023-06-26T05:55:47;6.22;;;1.55;;
24859;SDS011;12936;52.006;4.350;2023-06-26T05:58:16;7.20;;;1.60;;
24859;SDS011;12936;52.006;4.350;2023-06-26T06:00:49;5.90;;;1.70;;
24859;SDS011;12936;52.006;4.350;2023-06-26T06:03:17;7.15;;;1.58;;
24859;SDS011;12936;52.006;4.350;2023-06-26T06:05:45;4.68;;;1.20;;
24859;SDS011;12936;52.006;4.350;2023-06-26T06:08:13;9.55;;;1.67;;
24859;SDS011;12936;52.006;4.350;2023-06-26T06:10:41;7.95;;;1.75;;
24859;SDS011;12936;52.006;4.350;2023-06-26T06:13:09;8.63;;;1.80;;
24859;SDS011;12936;52.006;4.350;2023-06-26T06:15:37;6.47;;;2.10;;
24859;SDS011;12936;52.006;4.350;2023-06-26T06:18:07;7.40;;;1.50;;
24859;SDS011;12936;52.006;4.350;2023-06-26T06:20:35;9.73;;;1.75;;
24859;SDS011;12936;52.006;4.350;2023-06-26T06:23:04;7.68;;;1.92;;
24859;SDS011;12936;52.006;4.350;2023-06-26T06:25:32;12.25;;;2.00;;
24859;SDS011;12936;52.006;4.350;2023-06-26T06:28:00;3.63;;;1.40;;
24859;SDS011;12936;52.006;4.350;2023-06-26T06:30:28;7.70;;;2.00;;
24859;SDS011;12936;52.006;4.350;2023-06-26T06:33:11;7.60;;;1.42;;
24859;SDS011;12936;52.006;4.350;2023-06-26T06:35:39;13.10;;;1.90;;
24859;SDS011;12936;52.006;4.350;2023-06-26T06:38:07;8.52;;;1.75;;
24859;SDS011;12936;52.006;4.350;2023-06-26T06:40:35;6.25;;;1.33;;
24859;SDS011;12936;52.006;4.350;2023-06-26T06:43:04;8.63;;;1.75;;
24859;SDS011;12936;52.006;4.350;2023-06-26T06:45:32;7.65;;;1.58;;
24859;SDS011;12936;52.006;4.350;2023-06-26T06:48:00;6.43;;;1.77;;
24859;SDS011;12936;52.006;4.350;2023-06-26T06:50:29;5.05;;;1.58;;
24859;SDS011;12936;52.006;4.350;2023-06-26T06:52:57;9.07;;;1.60;;
24859;SDS011;12936;52.006;4.350;2023-06-26T06:55:26;6.70;;;1.48;;
24859;SDS011;12936;52.006;4.350;2023-06-26T06:57:54;11.05;;;1.95;;
24859;SDS011;12936;52.006;4.350;2023-06-26T07:00:22;9.90;;;1.67;;
24859;SDS011;12936;52.006;4.350;2023-06-26T07:02:50;6.20;;;2.15;;
24859;SDS011;12936;52.006;4.350;2023-06-26T07:05:18;9.75;;;1.52;;
24859;SDS011;12936;52.006;4.350;2023-06-26T07:07:47;9.82;;;2.58;;
24859;SDS011;12936;52.006;4.350;2023-06-26T07:10:16;8.98;;;1.80;;
24859;SDS011;12936;52.006;4.350;2023-06-26T07:12:44;6.72;;;1.40;;
24859;SDS011;12936;52.006;4.350;2023-06-26T07:15:12;11.77;;;2.42;;
24859;SDS011;12936;52.006;4.350;2023-06-26T07:17:40;7.22;;;1.35;;
24859;SDS011;12936;52.006;4.350;2023-06-26T07:20:09;10.15;;;1.88;;
24859;SDS011;12936;52.006;4.350;2023-06-26T07:22:41;8.48;;;1.70;;
24859;SDS011;12936;52.006;4.350;2023-06-26T07:25:13;9.15;;;1.55;;
24859;SDS011;12936;52.006;4.350;2023-06-26T07:27:41;5.15;;;1.65;;
24859;SDS011;12936;52.006;4.350;2023-06-26T07:30:11;11.30;;;1.73;;
24859;SDS011;12936;52.006;4.350;2023-06-26T07:32:39;8.27;;;1.52;;
24859;SDS011;12936;52.006;4.350;2023-06-26T07:35:09;4.72;;;1.20;;
24859;SDS011;12936;52.006;4.350;2023-06-26T07:37:37;4.22;;;1.33;;
24859;SDS011;12936;52.006;4.350;2023-06-26T07:40:05;5.15;;;1.40;;
24859;SDS011;12936;52.006;4.350;2023-06-26T07:42:35;11.40;;;2.10;;
24859;SDS011;12936;52.006;4.350;2023-06-26T07:45:04;6.28;;;1.58;;
24859;SDS011;12936;52.006;4.350;2023-06-26T07:47:36;4.07;;;1.35;;
24859;SDS011;12936;52.006;4.350;2023-06-26T07:50:04;8.75;;;1.60;;
24859;SDS011;12936;52.006;4.350;2023-06-26T07:52:33;6.05;;;1.40;;
24859;SDS011;12936;52.006;4.350;2023-06-26T07:55:01;7.03;;;1.67;;
24859;SDS011;12936;52.006;4.350;2023-06-26T07:57:30;6.72;;;1.60;;
24859;SDS011;12936;52.006;4.350;2023-06-26T08:00:00;11.88;;;1.48;;
24859;SDS011;12936;52.006;4.350;2023-06-26T08:02:28;3.95;;;1.80;;
24859;SDS011;12936;52.006;4.350;2023-06-26T08:04:56;6.97;;;1.63;;
24859;SDS011;12936;52.006;4.350;2023-06-26T08:07:25;9.60;;;1.80;;
24859;SDS011;12936;52.006;4.350;2023-06-26T08:09:53;8.60;;;1.73;;
24859;SDS011;12936;52.006;4.350;2023-06-26T08:12:21;8.05;;;1.73;;
24859;SDS011;12936;52.006;4.350;2023-06-26T08:14:49;10.50;;;1.50;;
24859;SDS011;12936;52.006;4.350;2023-06-26T08:17:18;18.52;;;2.13;;
24859;SDS011;12936;52.006;4.350;2023-06-26T08:19:46;8.40;;;2.08;;
24859;SDS011;12936;52.006;4.350;2023-06-26T08:22:14;9.82;;;1.73;;
24859;SDS011;12936;52.006;4.350;2023-06-26T08:24:42;8.60;;;1.88;;
24859;SDS011;12936;52.006;4.350;2023-06-26T08:27:11;7.13;;;1.60;;
24859;SDS011;12936;52.006;4.350;2023-06-26T08:29:39;5.13;;;1.63;;
24859;SDS011;12936;52.006;4.350;2023-06-26T08:32:07;6.15;;;1.50;;
24859;SDS011;12936;52.006;4.350;2023-06-26T08:34:36;8.55;;;1.70;;
24859;SDS011;12936;52.006;4.350;2023-06-26T08:37:05;6.93;;;1.55;;
24859;SDS011;12936;52.006;4.350;2023-06-26T08:39:35;7.60;;;2.10;;
24859;SDS011;12936;52.006;4.350;2023-06-26T08:42:03;11.63;;;1.95;;
24859;SDS011;12936;52.006;4.350;2023-06-26T08:44:32;7.70;;;1.48;;
24859;SDS011;12936;52.006;4.350;2023-06-26T08:47:01;6.95;;;1.65;;
24859;SDS011;12936;52.006;4.350;2023-06-26T08:49:34;7.95;;;1.63;;
24859;SDS011;12936;52.006;4.350;2023-06-26T08:52:17;8.98;;;2.20;;
24859;SDS011;12936;52.006;4.350;2023-06-26T08:54:48;6.78;;;1.88;;
24859;SDS011;12936;52.006;4.350;2023-06-26T08:57:22;12.50;;;2.05;;
24859;SDS011;12936;52.006;4.350;2023-06-26T08:59:51;7.93;;;1.92;;
24859;SDS011;12936;52.006;4.350;2023-06-26T09:02:20;6.57;;;1.55;;
24859;SDS011;12936;52.006;4.350;2023-06-26T09:04:50;5.78;;;1.85;;
24859;SDS011;12936;52.006;4.350;2023-06-26T09:07:18;8.45;;;2.08;;
24859;SDS011;12936;52.006;4.350;2023-06-26T09:09:46;7.40;;;1.60;;
24859;SDS011;12936;52.006;4.350;2023-06-26T09:12:14;17.45;;;2.17;;
24859;SDS011;12936;52.006;4.350;2023-06-26T09:14:43;5.30;;;1.70;;
24859;SDS011;12936;52.006;4.350;2023-06-26T09:17:12;6.97;;;2.00;;
24859;SDS011;12936;52.006;4.350;2023-06-26T09:19:40;9.60;;;2.25;;
24859;SDS011;12936;52.006;4.350;2023-06-26T09:22:14;6.85;;;1.67;;
24859;SDS011;12936;52.006;4.350;2023-06-26T09:24:43;8.07;;;1.90;;
24859;SDS011;12936;52.006;4.350;2023-06-26T09:27:11;6.28;;;2.00;;
24859;SDS011;12936;52.006;4.350;2023-06-26T09:29:40;6.78;;;2.30;;
24859;SDS011;12936;52.006;4.350;2023-06-26T09:32:09;8.55;;;1.67;;
24859;SDS011;12936;52.006;4.350;2023-06-26T09:34:37;6.85;;;1.60;;
24859;SDS011;12936;52.006;4.350;2023-06-26T09:37:11;9.50;;;1.80;;
24859;SDS011;12936;52.006;4.350;2023-06-26T09:39:41;10.57;;;1.70;;
24859;SDS011;12936;52.006;4.350;2023-06-26T09:42:09;6.75;;;1.60;;
24859;SDS011;12936;52.006;4.350;2023-06-26T09:44:37;14.55;;;1.85;;
24859;SDS011;12936;52.006;4.350;2023-06-26T09:47:11;4.93;;;1.58;;
24859;SDS011;12936;52.006;4.350;2023-06-26T09:49:40;5.00;;;1.63;;
24859;SDS011;12936;52.006;4.350;2023-06-26T09:52:09;10.77;;;1.75;;
24859;SDS011;12936;52.006;4.350;2023-06-26T09:54:39;8.10;;;1.70;;
24859;SDS011;12936;52.006;4.350;2023-06-26T09:57:07;7.03;;;1.73;;
24859;SDS011;12936;52.006;4.350;2023-06-26T09:59:35;6.85;;;1.45;;
24859;SDS011;12936;52.006;4.350;2023-06-26T10:02:04;12.18;;;1.88;;
24859;SDS011;12936;52.006;4.350;2023-06-26T10:04:35;10.82;;;1.80;;
24859;SDS011;12936;52.006;4.350;2023-06-26T10:07:05;2.60;;;1.20;;
24859;SDS011;12936;52.006;4.350;2023-06-26T10:09:35;8.20;;;1.70;;
24859;SDS011;12936;52.006;4.350;2023-06-26T10:12:10;8.65;;;2.22;;
24859;SDS011;12936;52.006;4.350;2023-06-26T10:14:44;8.90;;;1.92;;
24859;SDS011;12936;52.006;4.350;2023-06-26T10:17:15;11.25;;;1.40;;
24859;SDS011;12936;52.006;4.350;2023-06-26T10:19:46;6.30;;;1.40;;
24859;SDS011;12936;52.006;4.350;2023-06-26T10:22:18;11.13;;;1.88;;
24859;SDS011;12936;52.006;4.350;2023-06-26T10:24:50;5.25;;;1.30;;
24859;SDS011;12936;52.006;4.350;2023-06-26T10:27:20;5.63;;;1.27;;
24859;SDS011;12936;52.006;4.350;2023-06-26T10:29:50;6.00;;;1.95;;
24859;SDS011;12936;52.006;4.350;2023-06-26T10:32:22;5.50;;;1.40;;
24859;SDS011;12936;52.006;4.350;2023-06-26T10:34:52;5.45;;;1.40;;
24859;SDS011;12936;52.006;4.350;2023-06-26T10:37:20;5.00;;;1.35;;
24859;SDS011;12936;52.006;4.350;2023-06-26T10:40:09;5.68;;;1.40;;
24859;SDS011;12936;52.006;4.350;2023-06-26T10:42:38;4.40;;;1.20;;
24859;SDS011;12936;52.006;4.350;2023-06-26T10:45:10;10.32;;;1.48;;
24859;SDS011;12936;52.006;4.350;2023-06-26T10:47:41;7.47;;;1.60;;
24859;SDS011;12936;52.006;4.350;2023-06-26T10:50:16;7.60;;;1.50;;
24859;SDS011;12936;52.006;4.350;2023-06-26T10:53:08;5.68;;;1.50;;
24859;SDS011;12936;52.006;4.350;2023-06-26T10:55:40;5.82;;;1.50;;
24859;SDS011;12936;52.006;4.350;2023-06-26T10:58:33;11.30;;;1.50;;
24859;SDS011;12936;52.006;4.350;2023-06-26T11:01:18;7.60;;;1.48;;
24859;SDS011;12936;52.006;4.350;2023-06-26T11:04:00;6.03;;;1.40;;
24859;SDS011;12936;52.006;4.350;2023-06-26T11:06:31;8.32;;;1.88;;
24859;SDS011;12936;52.006;4.350;2023-06-26T11:09:01;4.22;;;1.30;;
24859;SDS011;12936;52.006;4.350;2023-06-26T11:14:34;4.22;;;1.50;;
24859;SDS011;12936;52.006;4.350;2023-06-26T11:17:03;7.43;;;1.60;;
24859;SDS011;12936;52.006;4.350;2023-06-26T11:19:31;5.80;;;1.50;;
24859;SDS011;12936;52.006;4.350;2023-06-26T11:22:03;7.60;;;1.35;;
24859;SDS011;12936;52.006;4.350;2023-06-26T11:24:32;4.78;;;1.15;;
24859;SDS011;12936;52.006;4.350;2023-06-26T11:27:03;7.47;;;1.40;;
24859;SDS011;12936;52.006;4.350;2023-06-26T11:29:32;4.80;;;1.35;;
24859;SDS011;12936;52.006;4.350;2023-06-26T11:32:01;5.00;;;1.33;;
24859;SDS011;12936;52.006;4.350;2023-06-26T11:34:33;7.88;;;1.75;;
24859;SDS011;12936;52.006;4.350;2023-06-26T11:37:01;7.05;;;1.38;;
24859;SDS011;12936;52.006;4.350;2023-06-26T11:39:30;3.35;;;1.33;;
24859;SDS011;12936;52.006;4.350;2023-06-26T11:41:59;4.40;;;1.25;;
24859;SDS011;12936;52.006;4.350;2023-06-26T11:44:32;9.23;;;1.75;;
24859;SDS011;12936;52.006;4.350;2023-06-26T11:47:09;4.53;;;1.23;;
24859;SDS011;12936;52.006;4.350;2023-06-26T11:49:41;5.10;;;1.15;;
24859;SDS011;12936;52.006;4.350;2023-06-26T11:52:10;4.75;;;0.90;;
24859;SDS011;12936;52.006;4.350;2023-06-26T11:54:38;3.63;;;1.20;;
24859;SDS011;12936;52.006;4.350;2023-06-26T11:57:06;6.38;;;1.33;;
24859;SDS011;12936;52.006;4.350;2023-06-26T11:59:37;4.40;;;1.42;;
24859;SDS011;12936;52.006;4.350;2023-06-26T12:02:06;4.57;;;1.20;;
24859;SDS011;12936;52.006;4.350;2023-06-26T12:04:36;8.32;;;1.48;;
24859;SDS011;12936;52.006;4.350;2023-06-26T12:07:07;3.85;;;0.90;;
24859;SDS011;12936;52.006;4.350;2023-06-26T12:09:40;3.22;;;1.10;;
24859;SDS011;12936;52.006;4.350;2023-06-26T12:12:10;3.70;;;1.17;;
24859;SDS011;12936;52.006;4.350;2023-06-26T12:14:41;4.90;;;1.15;;
24859;SDS011;12936;52.006;4.350;2023-06-26T12:17:09;3.58;;;1.20;;
24859;SDS011;12936;52.006;4.350;2023-06-26T12:19:43;2.95;;;0.95;;
24859;SDS011;12936;52.006;4.350;2023-06-26T12:22:14;4.57;;;1.42;;
24859;SDS011;12936;52.006;4.350;2023-06-26T12:24:42;3.70;;;1.17;;
24859;SDS011;12936;52.006;4.350;2023-06-26T12:27:11;5.38;;;1.33;;
24859;SDS011;12936;52.006;4.350;2023-06-26T12:29:45;4.38;;;1.50;;
24859;SDS011;12936;52.006;4.350;2023-06-26T12:32:17;4.78;;;1.00;;
24859;SDS011;12936;52.006;4.350;2023-06-26T12:34:46;5.93;;;1.30;;
24859;SDS011;12936;52.006;4.350;2023-06-26T12:37:17;4.03;;;1.20;;
24859;SDS011;12936;52.006;4.350;2023-06-26T12:39:45;6.03;;;1.33;;
24859;SDS011;12936;52.006;4.350;2023-06-26T12:42:14;4.50;;;1.38;;
24859;SDS011;12936;52.006;4.350;2023-06-26T12:44:46;6.22;;;1.38;;
24859;SDS011;12936;52.006;4.350;2023-06-26T12:47:15;7.95;;;1.38;;
24859;SDS011;12936;52.006;4.350;2023-06-26T12:49:49;5.90;;;1.20;;
24859;SDS011;12936;52.006;4.350;2023-06-26T12:52:18;6.93;;;1.55;;
24859;SDS011;12936;52.006;4.350;2023-06-26T12:54:51;5.40;;;1.60;;
24859;SDS011;12936;52.006;4.350;2023-06-26T12:57:20;5.78;;;1.63;;
24859;SDS011;12936;52.006;4.350;2023-06-26T12:59:49;2.38;;;1.17;;
24859;SDS011;12936;52.006;4.350;2023-06-26T13:02:17;4.50;;;1.23;;
24859;SDS011;12936;52.006;4.350;2023-06-26T13:04:46;4.53;;;1.50;;
24859;SDS011;12936;52.006;4.350;2023-06-26T13:07:14;7.63;;;1.65;;
24859;SDS011;12936;52.006;4.350;2023-06-26T13:09:43;4.55;;;1.20;;
24859;SDS011;12936;52.006;4.350;2023-06-26T13:12:12;4.95;;;1.27;;
24859;SDS011;12936;52.006;4.350;2023-06-26T13:14:40;4.55;;;1.20;;
24859;SDS011;12936;52.006;4.350;2023-06-26T13:17:10;3.13;;;0.98;;
24859;SDS011;12936;52.006;4.350;2023-06-26T13:19:39;4.13;;;1.13;;
24859;SDS011;12936;52.006;4.350;2023-06-26T13:22:07;7.00;;;1.60;;
24859;SDS011;12936;52.006;4.350;2023-06-26T13:24:35;4.00;;;1.58;;
24859;SDS011;12936;52.006;4.350;2023-06-26T13:27:03;4.10;;;1.27;;
24859;SDS011;12936;52.006;4.350;2023-06-26T13:29:31;5.13;;;1.33;;
24859;SDS011;12936;52.006;4.350;2023-06-26T13:32:00;6.63;;;1.40;;
24859;SDS011;12936;52.006;4.350;2023-06-26T13:34:29;3.53;;;1.27;;
24859;SDS011;12936;52.006;4.350;2023-06-26T13:36:57;8.57;;;1.48;;
24859;SDS011;12936;52.006;4.350;2023-06-26T13:39:26;8.18;;;1.50;;
24859;SDS011;12936;52.006;4.350;2023-06-26T13:41:55;2.58;;;1.27;;
24859;SDS011;12936;52.006;4.350;2023-06-26T13:44:23;5.28;;;1.58;;
24859;SDS011;12936;52.006;4.350;2023-06-26T13:47:06;11.07;;;1.33;;
24859;SDS011;12936;52.006;4.350;2023-06-26T13:49:37;7.72;;;1.50;;
24859;SDS011;12936;52.006;4.350;2023-06-26T13:52:05;5.85;;;1.35;;
24859;SDS011;12936;52.006;4.350;2023-06-26T13:54:34;3.17;;;1.13;;
24859;SDS011;12936;52.006;4.350;2023-06-26T13:57:06;4.25;;;1.10;;
24859;SDS011;12936;52.006;4.350;2023-06-26T13:59:36;9.05;;;1.90;;
24859;SDS011;12936;52.006;4.350;2023-06-26T14:02:05;5.47;;;1.38;;
24859;SDS011;12936;52.006;4.350;2023-06-26T14:04:34;5.28;;;1.30;;
24859;SDS011;12936;52.006;4.350;2023-06-26T14:07:05;3.60;;;1.27;;
24859;SDS011;12936;52.006;4.350;2023-06-26T14:09:33;5.18;;;0.90;;
24859;SDS011;12936;52.006;4.350;2023-06-26T14:12:02;2.72;;;1.23;;
24859;SDS011;12936;52.006;4.350;2023-06-26T14:14:30;2.88;;;1.23;;
24859;SDS011;12936;52.006;4.350;2023-06-26T14:16:58;2.75;;;1.10;;
24859;SDS011;12936;52.006;4.350;2023-06-26T14:19:27;3.55;;;1.10;;
24859;SDS011;12936;52.006;4.350;2023-06-26T14:21:55;4.47;;;1.08;;
24859;SDS011;12936;52.006;4.350;2023-06-26T14:24:26;4.55;;;1.30;;
24859;SDS011;12936;52.006;4.350;2023-06-26T14:26:54;5.82;;;1.40;;
24859;SDS011;12936;52.006;4.350;2023-06-26T14:29:22;6.82;;;1.38;;
24859;SDS011;12936;52.006;4.350;2023-06-26T14:31:50;5.40;;;1.17;;
24859;SDS011;12936;52.006;4.350;2023-06-26T14:34:21;4.25;;;1.33;;
24859;SDS011;12936;52.006;4.350;2023-06-26T14:36:50;5.13;;;1.17;;
24859;SDS011;12936;52.006;4.350;2023-06-26T14:39:18;9.50;;;1.50;;
24859;SDS011;12936;52.006;4.350;2023-06-26T14:41:48;2.92;;;1.13;;
24859;SDS011;12936;52.006;4.350;2023-06-26T14:44:16;4.18;;;1.02;;
24859;SDS011;12936;52.006;4.350;2023-06-26T14:46:45;4.78;;;1.45;;
24859;SDS011;12936;52.006;4.350;2023-06-26T14:49:13;3.80;;;1.00;;
24859;SDS011;12936;52.006;4.350;2023-06-26T14:51:41;3.00;;;1.17;;
24859;SDS011;12936;52.006;4.350;2023-06-26T14:54:09;5.22;;;1.50;;
24859;SDS011;12936;52.006;4.350;2023-06-26T14:56:37;3.78;;;1.33;;
24859;SDS011;12936;52.006;4.350;2023-06-26T14:59:07;4.28;;;1.15;;